高知空港の過去48時間の天気

高知空港 (Kochi)

現在時刻: 12/8 19:26 JST (12/8 10:26 UTC) 以下の時間は現地時間です。

過去48時間のMETAR気象情報
時間 風向 風速(m/s) 視程 気温(℃) 湿度(%) 気圧(hPa) 天気現象
8 19:00 7 10km以上 12 50 1025
8 18:00 6 10km以上 13 51 1025
8 17:00 8 10km以上 13 51 1024
8 16:00 9 10km以上 14 44 1024
8 15:00 9 10km以上 15 45 1023
8 14:00 11 10km以上 15 45 1023
8 13:00 9 10km以上 16 39 1023
8 12:00 8 10km以上 16 42 1023
8 11:00 北北東 7 10km以上 16 42 1023
8 10:00 北北東 8 10km以上 15 41 1023
8 09:00 6 10km以上 14 47 1023
8 08:00 7 10km以上 13 51 1022
8 07:00 10 10km以上 12 50 1022
8 06:10 7 10km以上 13 47 1021
RJOK 081000Z 01013KT 9999 FEW050 12/02 Q1025
RJOK 080900Z 36012KT 9999 FEW050 13/03 Q1025
RJOK 080800Z 36015KT 9999 FEW050 13/03 Q1024
RJOK 080700Z 36017G28KT 9999 FEW050 14/02 Q1024
RJOK 080600Z 36018G29KT 330V030 9999 FEW035 15/03 Q1023
RJOK 080500Z 35021KT 9999 FEW035 15/03 Q1023
RJOK 080400Z 35018KT 9999 FEW035 16/02 Q1023
RJOK 080300Z 36015KT 330V040 9999 FEW035 16/03 Q1023
RJOK 080200Z 02014G26KT 330V050 9999 FEW030 16/03 Q1023
RJOK 080100Z 02016KT 340V050 9999 FEW030 15/02 Q1023
RJOK 080000Z 01012KT 330V110 9999 FEW030 14/03 Q1023
RJOK 072300Z 35014KT 9999 FEW030 13/03 Q1022
RJOK 072200Z 35020KT 9999 FEW030 12/02 Q1022
RJOK 072110Z 35014KT 9999 FEW030 13/02 Q1021 RMK 1CU030 A3017